Parkside, New York
Current Conditions -  °F | °C
As of 5:51 AM on Tuesday 21 Oct 2014 (Local Time) from KLGA Reporting Station
Overcast Overcast  
Wind Chill: 14°   Ceiling: 11000
Heat Index: 14°   Visibility: 10mi
Dew Point:   Wind: 3mph
Humidity: 67%   Direction: 180°S
Pressure: 29.9"   Gusts: NA
Location:  40.7228°N, 73.845°W
Report Text: KLGA 210951Z 18003KT 10SM FEW050 BKN110 OVC150 14/08 A2990 RMK AO2 SLP123 T01390078
Loading
Personal Weather Stations






























Interactive Weather Map
Tropical Storm Tracking
New forecast layout! Learn more

10-Day Weather Forecast

Advertisements
Track Severe Weather on mobile